Time,TemperatureF,DewpointF,PressureIn,WindDirection,WindDirectionDegrees,WindSpeedMPH,WindSpeedGustMPH,Humidity,HourlyPrecipIn,Conditions,Clouds,dailyrainin,SoftwareType,DateUTC
2013-06-30 00:02:00,60.0,45.0,29.83,NE,36,0.0,-999.0,58,-99.99,,,-99.99,,2013-06-30 06:02:00,
2013-06-30 00:12:00,60.0,45.0,29.83,NE,36,0.0,-999.0,58,-99.99,,,-99.99,,2013-06-30 06:12:00,
2013-06-30 00:23:00,59.0,45.0,29.83,NE,36,0.0,-999.0,59,-99.99,,,-99.99,,2013-06-30 06:23:00,
2013-06-30 00:33:00,58.0,44.0,29.84,NE,36,0.0,-999.0,60,-99.99,,,-99.99,,2013-06-30 06:33:00,
2013-06-30 00:43:00,58.0,44.0,29.84,NE,36,0.0,-999.0,60,-99.99,,,-99.99,,2013-06-30 06:43:00,
2013-06-30 00:53:00,56.0,43.0,29.84,NE,36,0.0,-999.0,61,-99.99,,,-99.99,,2013-06-30 06:53:00,
2013-06-30 01:02:00,56.0,43.0,29.84,NE,36,0.0,-999.0,62,-99.99,,,-99.99,,2013-06-30 07:02:00,
2013-06-30 01:12:00,56.0,43.0,29.84,NE,36,0.0,-999.0,62,-99.99,,,-99.99,,2013-06-30 07:12:00,
2013-06-30 01:22:00,57.0,44.0,29.83,NE,36,0.0,-999.0,61,-99.99,,,-99.99,,2013-06-30 07:22:00,
2013-06-30 01:33:00,56.0,43.0,29.83,NE,36,0.0,-999.0,62,-99.99,,,-99.99,,2013-06-30 07:33:00,
2013-06-30 01:44:00,56.0,43.0,29.83,NE,36,0.0,-999.0,62,-99.99,,,-99.99,,2013-06-30 07:44:00,
2013-06-30 01:53:00,56.0,43.0,29.83,NE,36,0.0,-999.0,62,-99.99,,,-99.99,,2013-06-30 07:53:00,
2013-06-30 02:02:00,55.0,43.0,29.83,NE,36,0.0,-999.0,63,-99.99,,,-99.99,,2013-06-30 08:02:00,
2013-06-30 02:11:00,55.0,43.0,29.83,NE,36,0.0,-999.0,63,-99.99,,,-99.99,,2013-06-30 08:11:00,
2013-06-30 02:22:00,54.0,42.0,29.83,NE,36,0.0,-999.0,64,-99.99,,,-99.99,,2013-06-30 08:22:00,
2013-06-30 02:33:00,54.0,42.0,29.83,NE,36,0.0,-999.0,63,-99.99,,,-99.99,,2013-06-30 08:33:00,
2013-06-30 02:42:00,54.0,42.0,29.83,NE,36,0.0,-999.0,63,-99.99,,,-99.99,,2013-06-30 08:42:00,
2013-06-30 02:53:00,54.0,42.0,29.83,NE,36,0.0,-999.0,63,-99.99,,,-99.99,,2013-06-30 08:53:00,
2013-06-30 03:01:00,54.0,42.0,29.83,NE,36,0.0,-999.0,63,-99.99,,,-99.99,,2013-06-30 09:01:00,
2013-06-30 03:12:00,54.0,42.0,29.83,NE,36,0.0,-999.0,63,-99.99,,,-99.99,,2013-06-30 09:12:00,
2013-06-30 03:23:00,52.0,41.0,29.83,NE,36,0.0,-999.0,65,-99.99,,,-99.99,,2013-06-30 09:23:00,
2013-06-30 03:33:00,54.0,42.0,29.83,NE,36,0.0,-999.0,63,-99.99,,,-99.99,,2013-06-30 09:33:00,
2013-06-30 03:43:00,54.0,42.0,29.83,NE,36,0.0,-999.0,63,-99.99,,,-99.99,,2013-06-30 09:43:00,
2013-06-30 03:53:00,53.0,41.0,29.82,NE,36,0.0,-999.0,64,-99.99,,,-99.99,,2013-06-30 09:53:00,
2013-06-30 04:02:00,52.0,41.0,29.82,NE,36,0.0,-999.0,65,-99.99,,,-99.99,,2013-06-30 10:02:00,
2013-06-30 04:11:00,52.0,41.0,29.82,NE,36,0.0,-999.0,65,-99.99,,,-99.99,,2013-06-30 10:11:00,
2013-06-30 04:22:00,51.0,40.0,29.83,NE,36,0.0,-999.0,67,-99.99,,,-99.99,,2013-06-30 10:22:00,
2013-06-30 04:33:00,52.0,40.0,29.83,NE,36,0.0,-999.0,64,-99.99,,,-99.99,,2013-06-30 10:33:00,
2013-06-30 04:42:00,52.0,40.0,29.83,NE,36,0.0,-999.0,64,-99.99,,,-99.99,,2013-06-30 10:42:00,
2013-06-30 04:53:00,52.0,41.0,29.83,NE,36,0.0,-999.0,65,-99.99,,,-99.99,,2013-06-30 10:53:00,
2013-06-30 05:02:00,52.0,40.0,29.84,NE,36,0.0,-999.0,64,-99.99,,,-99.99,,2013-06-30 11:02:00,
2013-06-30 05:11:00,52.0,40.0,29.84,NE,36,0.0,-999.0,64,-99.99,,,-99.99,,2013-06-30 11:11:00,
2013-06-30 05:22:00,52.0,40.0,29.84,NE,36,0.0,-999.0,64,-99.99,,,-99.99,,2013-06-30 11:22:00,
2013-06-30 05:33:00,51.0,40.0,29.85,NE,36,0.0,-999.0,65,-99.99,,,-99.99,,2013-06-30 11:33:00,
2013-06-30 05:43:00,51.0,40.0,29.85,NE,36,0.0,-999.0,65,-99.99,,,-99.99,,2013-06-30 11:43:00,
2013-06-30 05:53:00,50.0,39.0,29.85,NE,36,0.0,-999.0,66,-99.99,,,-99.99,,2013-06-30 11:53:00,
2013-06-30 06:01:00,50.0,39.0,29.85,NE,36,0.0,-999.0,67,-99.99,,,-99.99,,2013-06-30 12:01:00,
2013-06-30 06:11:00,50.0,39.0,29.85,NE,36,0.0,-999.0,67,-99.99,,,-99.99,,2013-06-30 12:11:00,
2013-06-30 06:24:00,50.0,39.0,29.86,NE,36,0.0,-999.0,66,-99.99,,,-99.99,,2013-06-30 12:24:00,
2013-06-30 06:33:00,50.0,39.0,29.86,NE,36,0.0,-999.0,67,-99.99,,,-99.99,,2013-06-30 12:33:00,
2013-06-30 06:43:00,50.0,39.0,29.86,NE,36,0.0,-999.0,67,-99.99,,,-99.99,,2013-06-30 12:43:00,
2013-06-30 06:52:00,50.0,39.0,29.86,NE,36,0.0,-999.0,67,-99.99,,,-99.99,,2013-06-30 12:52:00,
2013-06-30 07:02:00,51.0,40.0,29.86,NE,36,0.0,-999.0,65,-99.99,,,-99.99,,2013-06-30 13:02:00,
2013-06-30 07:12:00,51.0,40.0,29.86,NE,36,0.0,-999.0,65,-99.99,,,-99.99,,2013-06-30 13:12:00,
2013-06-30 07:22:00,51.0,40.0,29.86,NE,36,0.0,-999.0,65,-99.99,,,-99.99,,2013-06-30 13:22:00,
2013-06-30 07:33:00,53.0,40.0,29.87,NE,36,0.0,-999.0,62,-99.99,,,-99.99,,2013-06-30 13:33:00,
2013-06-30 07:43:00,53.0,40.0,29.87,NE,36,0.0,-999.0,62,-99.99,,,-99.99,,2013-06-30 13:43:00,
2013-06-30 07:53:00,54.0,43.0,29.87,ENE,61,0.0,-999.0,65,-99.99,,,-99.99,,2013-06-30 13:53:00,
2013-06-30 08:02:00,54.0,42.0,29.87,ESE,121,0.0,-999.0,63,-99.99,,,-99.99,,2013-06-30 14:02:00,
2013-06-30 08:11:00,54.0,42.0,29.87,ESE,121,0.0,-999.0,63,-99.99,,,-99.99,,2013-06-30 14:11:00,
2013-06-30 08:22:00,55.0,42.0,29.87,ESE,121,0.0,-999.0,62,-99.99,,,-99.99,,2013-06-30 14:22:00,
2013-06-30 08:33:00,57.0,43.0,29.87,ESE,121,0.0,-999.0,59,-99.99,,,-99.99,,2013-06-30 14:33:00,
2013-06-30 08:44:00,57.0,43.0,29.87,ESE,121,0.0,-999.0,59,-99.99,,,-99.99,,2013-06-30 14:44:00,
2013-06-30 08:52:00,59.0,43.0,29.87,ESE,121,0.0,-999.0,56,-99.99,,,-99.99,,2013-06-30 14:52:00,
2013-06-30 09:02:00,61.0,44.0,29.87,ESE,121,0.0,-999.0,54,-99.99,,,-99.99,,2013-06-30 15:02:00,
2013-06-30 09:12:00,61.0,44.0,29.87,ESE,121,0.0,-999.0,54,-99.99,,,-99.99,,2013-06-30 15:12:00,
2013-06-30 09:23:00,63.0,44.0,29.86,ESE,121,0.0,-999.0,49,-99.99,,,-99.99,,2013-06-30 15:23:00,
2013-06-30 09:34:00,65.0,46.0,29.86,ESE,121,0.0,-999.0,50,-99.99,,,-99.99,,2013-06-30 15:34:00,
2013-06-30 09:44:00,65.0,46.0,29.86,ESE,121,0.0,-999.0,50,-99.99,,,-99.99,,2013-06-30 15:44:00,
2013-06-30 09:53:00,65.0,44.0,29.85,ESE,122,1.0,-999.0,47,-99.99,,,-99.99,,2013-06-30 15:53:00,
2013-06-30 10:01:00,67.0,44.0,29.84,SE,125,0.0,-999.0,44,-99.99,,,-99.99,,2013-06-30 16:01:00,
2013-06-30 10:11:00,67.0,44.0,29.84,SE,125,0.0,-999.0,44,-99.99,,,-99.99,,2013-06-30 16:11:00,
2013-06-30 10:21:00,69.0,47.0,29.84,ESE,115,1.0,-999.0,45,-99.99,,,-99.99,,2013-06-30 16:21:00,
2013-06-30 10:34:00,70.0,45.0,29.83,ESE,107,1.0,-999.0,40,-99.99,,,-99.99,,2013-06-30 16:34:00,
2013-06-30 10:44:00,70.0,45.0,29.83,ESE,107,1.0,-999.0,40,-99.99,,,-99.99,,2013-06-30 16:44:00,
2013-06-30 10:53:00,72.0,47.0,29.83,East,86,1.0,-999.0,41,-99.99,,,-99.99,,2013-06-30 16:53:00,
2013-06-30 11:01:00,73.0,46.0,29.81,ESE,111,3.0,-999.0,38,-99.99,,,-99.99,,2013-06-30 17:01:00,
2013-06-30 11:11:00,73.0,46.0,29.81,ESE,111,3.0,-999.0,38,-99.99,,,-99.99,,2013-06-30 17:11:00,
2013-06-30 11:23:00,74.0,47.0,29.80,East,96,2.0,-999.0,38,-99.99,,,-99.99,,2013-06-30 17:23:00,
2013-06-30 11:34:00,75.0,47.0,29.80,East,94,3.0,-999.0,37,-99.99,,,-99.99,,2013-06-30 17:34:00,
2013-06-30 11:43:00,75.0,47.0,29.80,East,94,3.0,-999.0,37,-99.99,,,-99.99,,2013-06-30 17:43:00,
2013-06-30 11:52:00,76.0,46.0,29.78,East,92,4.0,-999.0,35,-99.99,,,-99.99,,2013-06-30 17:52:00,
2013-06-30 12:02:00,78.0,47.0,29.78,South,172,3.0,-999.0,34,-99.99,,,-99.99,,2013-06-30 18:02:00,
2013-06-30 12:12:00,78.0,47.0,29.78,South,172,3.0,-999.0,34,-99.99,,,-99.99,,2013-06-30 18:12:00,
2013-06-30 12:22:00,76.0,48.0,29.78,WSW,253,3.0,-999.0,37,-99.99,,,-99.99,,2013-06-30 18:22:00,
2013-06-30 12:43:00,74.0,46.0,29.78,WNW,286,3.0,-999.0,37,-99.99,,,-99.99,,2013-06-30 18:43:00,
2013-06-30 12:53:00,78.0,48.0,29.77,SE,132,3.0,-999.0,35,-99.99,,,-99.99,,2013-06-30 18:53:00,
2013-06-30 13:01:00,78.0,47.0,29.76,South,171,4.0,-999.0,34,-99.99,,,-99.99,,2013-06-30 19:01:00,
2013-06-30 13:11:00,78.0,47.0,29.76,South,171,4.0,-999.0,34,-99.99,,,-99.99,,2013-06-30 19:11:00,
2013-06-30 13:22:00,77.0,46.0,29.74,SSE,167,4.0,-999.0,34,-99.99,,,-99.99,,2013-06-30 19:22:00,
2013-06-30 13:33:00,78.0,47.0,29.73,SE,133,1.0,-999.0,33,-99.99,,,-99.99,,2013-06-30 19:33:00,
2013-06-30 13:43:00,78.0,47.0,29.73,SE,133,1.0,-999.0,33,-99.99,,,-99.99,,2013-06-30 19:43:00,
2013-06-30 13:53:00,76.0,46.0,29.73,West,279,2.0,-999.0,35,-99.99,,,-99.99,,2013-06-30 19:53:00,
2013-06-30 14:01:00,75.0,48.0,29.72,SSE,167,1.0,-999.0,38,-99.99,,,-99.99,,2013-06-30 20:01:00,
2013-06-30 14:11:00,75.0,48.0,29.72,SSE,167,1.0,-999.0,38,-99.99,,,-99.99,,2013-06-30 20:11:00,
2013-06-30 14:22:00,77.0,45.0,29.73,West,279,7.0,-999.0,32,-99.99,,,-99.99,,2013-06-30 20:22:00,
2013-06-30 14:34:00,75.0,45.0,29.73,West,269,8.0,-999.0,35,-99.99,,,-99.99,,2013-06-30 20:34:00,
2013-06-30 14:42:00,75.0,45.0,29.73,West,269,8.0,-999.0,35,-99.99,,,-99.99,,2013-06-30 20:42:00,
2013-06-30 14:52:00,75.0,45.0,29.71,WNW,284,8.0,-999.0,34,-99.99,,,-99.99,,2013-06-30 20:52:00,
2013-06-30 15:01:00,76.0,46.0,29.71,WNW,291,5.0,-999.0,34,-99.99,,,-99.99,,2013-06-30 21:01:00,
2013-06-30 15:11:00,76.0,46.0,29.71,WNW,291,5.0,-999.0,34,-99.99,,,-99.99,,2013-06-30 21:11:00,
2013-06-30 15:22:00,77.0,42.0,29.72,SW,230,2.0,-999.0,29,-99.99,,,-99.99,,2013-06-30 21:22:00,
2013-06-30 15:34:00,77.0,44.0,29.72,South,173,1.0,-999.0,31,-99.99,,,-99.99,,2013-06-30 21:34:00,
2013-06-30 16:22:00,77.0,43.0,29.69,ESE,109,1.0,-999.0,30,-99.99,,,-99.99,,2013-06-30 22:22:00,
2013-06-30 16:43:00,77.0,44.0,29.68,NE,51,0.0,-999.0,31,-99.99,,,-99.99,,2013-06-30 22:43:00,
2013-06-30 16:53:00,76.0,43.0,29.68,East,88,0.0,-999.0,31,-99.99,,,-99.99,,2013-06-30 22:53:00,
2013-06-30 17:01:00,76.0,41.0,29.67,West,277,1.0,-999.0,29,-99.99,,,-99.99,,2013-06-30 23:01:00,
2013-06-30 17:11:00,76.0,41.0,29.67,West,277,1.0,-999.0,29,-99.99,,,-99.99,,2013-06-30 23:11:00,
2013-06-30 17:22:00,77.0,41.0,29.66,West,272,1.0,-999.0,28,-99.99,,,-99.99,,2013-06-30 23:22:00,
2013-06-30 17:33:00,78.0,43.0,29.66,West,271,1.0,-999.0,29,-99.99,,,-99.99,,2013-06-30 23:33:00,
2013-06-30 17:43:00,78.0,43.0,29.66,West,271,1.0,-999.0,29,-99.99,,,-99.99,,2013-06-30 23:43:00,
2013-06-30 17:53:00,79.0,40.0,29.65,North,355,2.0,-999.0,25,-99.99,,,-99.99,,2013-06-30 23:53:00,
2013-06-30 18:01:00,81.0,43.0,29.64,West,265,1.0,-999.0,26,-99.99,,,-99.99,,2013-07-01 00:01:00,
2013-06-30 18:11:00,81.0,43.0,29.64,West,265,1.0,-999.0,26,-99.99,,,-99.99,,2013-07-01 00:11:00,
2013-06-30 18:22:00,81.0,42.0,29.63,SW,218,1.0,-999.0,25,-99.99,,,-99.99,,2013-07-01 00:22:00,
2013-06-30 18:33:00,81.0,42.0,29.63,SSW,196,0.0,-999.0,25,-99.99,,,-99.99,,2013-07-01 00:33:00,
2013-06-30 18:42:00,81.0,42.0,29.63,SSW,196,0.0,-999.0,25,-99.99,,,-99.99,,2013-07-01 00:42:00,
2013-06-30 18:52:00,79.0,41.0,29.62,West,279,2.0,-999.0,26,-99.99,,,-99.99,,2013-07-01 00:52:00,
2013-06-30 19:01:00,79.0,41.0,29.62,West,279,2.0,-999.0,26,-99.99,,,-99.99,,2013-07-01 01:01:00,
2013-06-30 19:11:00,78.0,41.0,29.65,NNW,344,0.0,-999.0,27,-99.99,,,-99.99,,2013-07-01 01:11:00,
2013-06-30 19:22:00,78.0,41.0,29.65,NNW,344,0.0,-999.0,27,-99.99,,,-99.99,,2013-07-01 01:22:00,
2013-06-30 19:33:00,76.0,46.0,29.66,NW,309,0.0,-999.0,34,-99.99,,,-99.99,,2013-07-01 01:33:00,
2013-06-30 19:42:00,76.0,46.0,29.66,NW,309,0.0,-999.0,34,-99.99,,,-99.99,,2013-07-01 01:42:00,
2013-06-30 19:52:00,72.0,46.0,29.68,ENE,68,0.0,-999.0,40,-99.99,,,-99.99,,2013-07-01 01:52:00,
2013-06-30 20:02:00,71.0,45.0,29.68,ESE,115,0.0,-999.0,39,-99.99,,,-99.99,,2013-07-01 02:02:00,
2013-06-30 20:11:00,71.0,45.0,29.68,ESE,115,0.0,-999.0,39,-99.99,,,-99.99,,2013-07-01 02:11:00,
2013-06-30 20:22:00,70.0,45.0,29.69,East,80,0.0,-999.0,40,-99.99,,,-99.99,,2013-07-01 02:22:00,
2013-06-30 20:43:00,69.0,44.0,29.70,SE,128,0.0,-999.0,41,-99.99,,,-99.99,,2013-07-01 02:43:00,
2013-06-30 20:54:00,69.0,45.0,29.70,ENE,59,0.0,-999.0,42,-99.99,,,-99.99,,2013-07-01 02:54:00,
2013-06-30 21:01:00,69.0,45.0,29.70,ENE,59,0.0,-999.0,42,-99.99,,,-99.99,,2013-07-01 03:01:00,
2013-06-30 21:11:00,67.0,44.0,29.70,SE,143,0.0,-999.0,43,-99.99,,,-99.99,,2013-07-01 03:11:00,
2013-06-30 21:23:00,66.0,45.0,29.72,ESE,105,0.0,-999.0,46,-99.99,,,-99.99,,2013-07-01 03:23:00,
2013-06-30 21:33:00,65.0,44.0,29.72,ESE,105,0.0,-999.0,47,-99.99,,,-99.99,,2013-07-01 03:33:00,
2013-06-30 21:43:00,65.0,44.0,29.72,ESE,105,0.0,-999.0,47,-99.99,,,-99.99,,2013-07-01 03:43:00,
2013-06-30 21:52:00,65.0,45.0,29.74,ENE,67,0.0,-999.0,48,-99.99,,,-99.99,,2013-07-01 03:52:00,
2013-06-30 22:01:00,64.0,45.0,29.74,ENE,57,0.0,-999.0,50,-99.99,,,-99.99,,2013-07-01 04:01:00,
2013-06-30 22:11:00,64.0,45.0,29.74,ENE,57,0.0,-999.0,50,-99.99,,,-99.99,,2013-07-01 04:11:00,
2013-06-30 22:22:00,64.0,45.0,29.74,ENE,57,0.0,-999.0,50,-99.99,,,-99.99,,2013-07-01 04:22:00,
2013-06-30 22:32:00,64.0,45.0,29.74,ENE,57,0.0,-999.0,50,-99.99,,,-99.99,,2013-07-01 04:32:00,
2013-06-30 22:43:00,64.0,45.0,29.74,ENE,57,0.0,-999.0,50,-99.99,,,-99.99,,2013-07-01 04:43:00,
2013-06-30 22:53:00,62.0,43.0,29.75,ENE,57,0.0,-999.0,49,-99.99,,,-99.99,,2013-07-01 04:53:00,
2013-06-30 23:01:00,63.0,43.0,29.75,ENE,57,0.0,-999.0,48,-99.99,,,-99.99,,2013-07-01 05:01:00,
2013-06-30 23:11:00,63.0,43.0,29.75,ENE,57,0.0,-999.0,48,-99.99,,,-99.99,,2013-07-01 05:11:00,
2013-06-30 23:22:00,62.0,42.0,29.75,ENE,57,0.0,-999.0,48,-99.99,,,-99.99,,2013-07-01 05:22:00,
2013-06-30 23:33:00,62.0,41.0,29.75,ENE,57,0.0,-999.0,46,-99.99,,,-99.99,,2013-07-01 05:33:00,
2013-06-30 23:42:00,62.0,41.0,29.75,ENE,57,0.0,-999.0,46,-99.99,,,-99.99,,2013-07-01 05:42:00,
2013-06-30 23:52:00,64.0,40.0,29.76,ENE,57,0.0,-999.0,42,-99.99,,,-99.99,,2013-07-01 05:52:00,